createdAt,value
2018-08-31T00:00:19.936Z,1009.8
2018-08-31T00:10:21.669Z,1009.8
2018-08-31T00:20:23.687Z,1009.7
2018-08-31T00:30:25.541Z,1009.7
2018-08-31T00:40:27.631Z,1009.6
2018-08-31T00:50:29.528Z,1009.7
2018-08-31T01:00:31.838Z,1009.7
2018-08-31T01:10:33.769Z,1009.7
2018-08-31T01:20:35.547Z,1009.7
2018-08-31T01:30:37.673Z,1009.7
2018-08-31T01:40:39.394Z,1009.8
2018-08-31T01:50:41.357Z,1009.7
2018-08-31T02:00:43.285Z,1009.7
2018-08-31T02:10:44.934Z,1009.7
2018-08-31T02:20:46.734Z,1009.7
2018-08-31T02:30:48.574Z,1009.8
2018-08-31T02:40:50.529Z,1009.7
2018-08-31T02:50:52.460Z,1009.7
2018-08-31T03:00:55.832Z,1009.6
2018-08-31T03:10:57.430Z,1009.6
2018-08-31T03:20:59.119Z,1009.6
2018-08-31T03:31:01.121Z,1009.6
2018-08-31T03:41:03.266Z,1009.6
2018-08-31T03:51:05.268Z,1009.6
2018-08-31T04:01:07.567Z,1009.6
2018-08-31T04:11:09.913Z,1009.6
2018-08-31T04:21:12.100Z,1009.6
2018-08-31T04:31:14.887Z,1009.6
2018-08-31T04:41:16.893Z,1009.6
2018-08-31T04:51:18.879Z,1009.7
2018-08-31T05:01:20.782Z,1009.8
2018-08-31T05:11:22.560Z,1009.8
2018-08-31T05:21:24.173Z,1009.8
2018-08-31T05:31:25.779Z,1009.9
2018-08-31T05:41:27.330Z,1009.9
2018-08-31T05:51:28.523Z,1010
2018-08-31T06:01:30.517Z,1010.1
2018-08-31T06:11:32.637Z,1010.1
2018-08-31T06:21:35.496Z,1010.2
2018-08-31T06:31:38.027Z,1010.2
2018-08-31T06:41:39.662Z,1010.2
2018-08-31T06:51:41.855Z,1010.2
2018-08-31T07:01:43.502Z,1010.3
2018-08-31T07:11:45.268Z,1010.3
2018-08-31T07:21:47.005Z,1010.4
2018-08-31T07:31:48.150Z,1010.5
2018-08-31T07:41:49.898Z,1010.7
2018-08-31T07:51:52.814Z,1010.6
2018-08-31T08:01:54.585Z,1010.6
2018-08-31T08:11:57.010Z,1010.7
2018-08-31T08:21:58.763Z,1010.8
2018-08-31T08:32:01.029Z,1010.9
2018-08-31T08:42:03.553Z,1010.9
2018-08-31T08:52:06.043Z,1010.9
2018-08-31T09:02:07.813Z,1010.8
2018-08-31T09:12:09.904Z,1010.8
2018-08-31T09:22:11.724Z,1010.8
2018-08-31T09:32:13.796Z,1010.8
2018-08-31T09:42:15.538Z,1010.8
2018-08-31T09:52:16.997Z,1010.7
2018-08-31T10:02:18.742Z,1010.6
2018-08-31T10:12:20.814Z,1010.5
2018-08-31T10:22:22.786Z,1010.6
2018-08-31T10:32:24.343Z,1010.6
2018-08-31T10:42:26.517Z,1010.5
2018-08-31T10:52:28.428Z,1010.5
2018-08-31T11:02:30.253Z,1010.4
2018-08-31T11:12:31.900Z,1010.5
2018-08-31T11:22:33.637Z,1010.5
2018-08-31T11:32:35.673Z,1010.5
2018-08-31T11:42:37.574Z,1010.4
2018-08-31T11:52:41.876Z,1010.4
2018-08-31T12:02:44.087Z,1010.3
2018-08-31T12:12:45.687Z,1010.4
2018-08-31T12:22:46.822Z,1010.4
2018-08-31T12:32:48.702Z,1010.3
2018-08-31T12:42:50.340Z,1010.2
2018-08-31T12:52:52.603Z,1010.2
2018-08-31T13:02:54.282Z,1010.2
2018-08-31T13:12:55.869Z,1010.1
2018-08-31T13:22:57.535Z,1010.1
2018-08-31T13:32:59.642Z,1010
2018-08-31T13:43:01.263Z,1010.1
2018-08-31T13:53:03.025Z,1010.1
2018-08-31T14:03:04.435Z,1010
2018-08-31T14:13:06.297Z,1009.9
2018-08-31T14:23:08.373Z,1009.9
2018-08-31T14:33:09.899Z,1009.9
2018-08-31T14:43:11.969Z,1009.9
2018-08-31T14:53:13.575Z,1009.9
2018-08-31T15:03:15.278Z,1009.9
2018-08-31T15:13:16.954Z,1009.9
2018-08-31T15:23:18.684Z,1009.9
2018-08-31T15:33:20.920Z,1009.9
2018-08-31T15:43:22.513Z,1009.8
2018-08-31T15:53:24.362Z,1009.9
2018-08-31T16:03:26.177Z,1009.9
2018-08-31T16:13:28.115Z,1010
2018-08-31T16:23:30.193Z,1010
2018-08-31T16:33:32.101Z,1010.1
2018-08-31T16:43:34.209Z,1010.1
2018-08-31T16:53:36.813Z,1010.2
2018-08-31T17:03:38.346Z,1010.2
2018-08-31T17:13:40.238Z,1010.2
2018-08-31T17:23:42.049Z,1010.3
2018-08-31T17:33:44.103Z,1010.3
2018-08-31T17:43:46.098Z,1010.4
2018-08-31T17:53:47.908Z,1010.5
2018-08-31T18:03:49.705Z,1010.6
2018-08-31T18:13:51.255Z,1010.7
2018-08-31T18:23:52.641Z,1010.8
2018-08-31T18:33:54.510Z,1011
2018-08-31T18:43:56.140Z,1011
2018-08-31T18:53:58.408Z,1011.1
2018-08-31T19:04:00.036Z,1011.2
2018-08-31T19:14:01.875Z,1011.2
2018-08-31T19:24:03.878Z,1011.3
2018-08-31T19:34:05.609Z,1011.3
2018-08-31T19:44:06.639Z,1011.3
2018-08-31T19:54:08.510Z,1011.4
2018-08-31T20:04:09.751Z,1011.5
2018-08-31T20:14:11.572Z,1011.6
2018-08-31T20:24:13.739Z,1011.6
2018-08-31T20:34:15.606Z,1011.6
2018-08-31T20:44:18.009Z,1011.7
2018-08-31T20:54:19.775Z,1011.8
2018-08-31T21:04:21.351Z,1011.9
2018-08-31T21:14:22.974Z,1011.9
2018-08-31T21:24:24.831Z,1012
2018-08-31T21:34:26.508Z,1012
2018-08-31T21:44:28.257Z,1012
2018-08-31T21:54:30.223Z,1012.1
2018-08-31T22:04:32.710Z,1012.1
2018-08-31T22:14:34.004Z,1012.1
2018-08-31T22:24:36.197Z,1012.2
2018-08-31T22:34:37.850Z,1012.2
2018-08-31T22:44:39.498Z,1012.2
2018-08-31T22:54:41.141Z,1012.2
2018-08-31T23:04:42.698Z,1012.2
2018-08-31T23:14:44.567Z,1012.2
2018-08-31T23:24:46.855Z,1012.2
2018-08-31T23:34:48.303Z,1012.3
2018-08-31T23:44:50.667Z,1012.2
2018-08-31T23:54:52.802Z,1012.2
